createdAt,value
2019-03-23T00:02:07.596Z,63.51
2019-03-23T00:04:38.114Z,63.96
2019-03-23T00:07:09.356Z,63.18
2019-03-23T00:09:41.833Z,63.72
2019-03-23T00:12:12.362Z,63.85
2019-03-23T00:14:45.449Z,63.22
2019-03-23T00:17:16.104Z,63.37
2019-03-23T00:19:46.568Z,62.64
2019-03-23T00:22:17.336Z,62.88
2019-03-23T00:24:47.831Z,62.40
2019-03-23T00:27:20.740Z,61.85
2019-03-23T00:29:51.892Z,62.41
2019-03-23T00:32:23.547Z,61.72
2019-03-23T00:34:54.074Z,61.60
2019-03-23T00:37:24.606Z,62.09
2019-03-23T00:39:55.129Z,61.73
2019-03-23T00:42:25.562Z,61.55
2019-03-23T00:44:57.475Z,61.30
2019-03-23T00:47:27.742Z,61.13
2019-03-23T00:49:58.368Z,61.49
2019-03-23T00:52:29.013Z,61.10
2019-03-23T00:54:59.628Z,61.11
2019-03-23T00:57:30.971Z,60.42
2019-03-23T01:00:01.294Z,60.32
2019-03-23T01:02:31.744Z,60.68
2019-03-23T01:05:03.795Z,60.57
2019-03-23T01:07:34.013Z,59.61
2019-03-23T01:10:10.266Z,59.27
2019-03-23T01:12:40.589Z,59.27
2019-03-23T01:15:13.879Z,59.25
2019-03-23T01:17:44.207Z,58.97
2019-03-23T01:20:14.838Z,59.10
2019-03-23T01:22:46.487Z,58.95
2019-03-23T01:25:17.833Z,59.08
2019-03-23T01:27:47.952Z,59.00
2019-03-23T01:30:18.687Z,59.01
2019-03-23T01:32:49.162Z,59.35
2019-03-23T01:35:19.742Z,58.80
2019-03-23T01:37:50.370Z,58.63
2019-03-23T01:40:21.002Z,58.65
2019-03-23T01:42:52.349Z,59.02
2019-03-23T01:45:22.977Z,58.95
2019-03-23T01:47:53.506Z,58.49
2019-03-23T01:50:24.137Z,58.85
2019-03-23T01:52:55.176Z,58.80
2019-03-23T01:55:26.923Z,58.96
2019-03-23T01:57:59.206Z,58.64
2019-03-23T02:00:29.834Z,58.28
2019-03-23T02:03:00.360Z,58.94
2019-03-23T02:05:30.888Z,58.37
2019-03-23T02:08:01.517Z,58.96
2019-03-23T02:10:35.008Z,58.74
2019-03-23T02:13:05.643Z,58.66
2019-03-23T02:15:36.882Z,58.45
2019-03-23T02:18:07.429Z,57.66
2019-03-23T02:20:38.047Z,58.13
2019-03-23T02:23:09.901Z,58.57
2019-03-23T02:25:40.161Z,58.64
2019-03-23T02:28:11.474Z,58.91
2019-03-23T02:30:42.411Z,59.11
2019-03-23T02:33:13.047Z,59.64
2019-03-23T02:35:44.870Z,59.71
2019-03-23T02:38:15.528Z,59.67
2019-03-23T02:40:46.875Z,59.58
2019-03-23T02:43:17.661Z,59.35
2019-03-23T02:45:48.143Z,59.48
2019-03-23T02:48:21.635Z,59.56
2019-03-23T02:50:51.855Z,59.43
2019-03-23T02:53:22.368Z,59.71
2019-03-23T02:55:53.930Z,59.29
2019-03-23T02:58:25.583Z,58.79
2019-03-23T03:00:56.421Z,59.37
2019-03-23T03:03:26.641Z,58.97
2019-03-23T03:05:57.228Z,58.97
2019-03-23T03:08:27.678Z,59.14
2019-03-23T03:10:58.943Z,58.80
2019-03-23T03:13:30.683Z,58.72
2019-03-23T03:16:00.766Z,58.53
2019-03-23T03:18:31.348Z,58.69
2019-03-23T03:21:02.690Z,58.92
2019-03-23T03:23:33.117Z,58.73
2019-03-23T03:26:03.851Z,59.10
2019-03-23T03:28:35.125Z,58.90
2019-03-23T03:31:06.245Z,59.05
2019-03-23T03:33:36.455Z,59.47
2019-03-23T03:36:07.107Z,59.30
2019-03-23T03:38:38.372Z,59.71
2019-03-23T03:41:09.987Z,59.65
2019-03-23T03:43:40.510Z,59.76
2019-03-23T03:46:12.159Z,59.77
2019-03-23T03:48:43.104Z,59.69
2019-03-23T03:51:13.283Z,59.63
2019-03-23T03:53:43.955Z,59.66
2019-03-23T03:56:15.921Z,60.01
2019-03-23T03:58:46.442Z,60.19
2019-03-23T04:01:17.530Z,60.54
2019-03-23T04:03:48.113Z,60.75
2019-03-23T04:06:21.099Z,60.94
2019-03-23T04:08:52.237Z,61.13
2019-03-23T04:11:23.178Z,61.65
2019-03-23T04:13:53.601Z,61.96
2019-03-23T04:16:24.146Z,62.19
2019-03-23T04:18:54.652Z,62.27
2019-03-23T04:21:27.345Z,62.07
2019-03-23T04:23:58.070Z,62.25
2019-03-23T04:26:29.716Z,61.88
2019-03-23T04:29:01.273Z,61.56
2019-03-23T04:31:32.550Z,61.85
2019-03-23T04:34:02.969Z,61.57
2019-03-23T04:36:33.571Z,61.62
2019-03-23T04:39:06.892Z,62.14
2019-03-23T04:41:39.544Z,62.19
2019-03-23T04:44:10.067Z,62.49
2019-03-23T04:46:43.997Z,62.39
2019-03-23T04:49:14.952Z,62.43
2019-03-23T04:51:45.543Z,62.60
2019-03-23T04:54:16.097Z,61.88
2019-03-23T04:56:46.703Z,61.81
2019-03-23T04:59:17.741Z,62.29
2019-03-23T05:01:48.685Z,61.07
2019-03-23T05:04:19.508Z,60.65
2019-03-23T05:06:50.042Z,60.16
2019-03-23T05:09:20.567Z,60.06
2019-03-23T05:11:51.157Z,60.21
2019-03-23T05:14:23.361Z,60.31
2019-03-23T05:16:53.910Z,60.43
2019-03-23T05:19:24.525Z,60.00
2019-03-23T05:21:55.969Z,59.93
2019-03-23T05:24:26.494Z,59.70
2019-03-23T05:26:57.026Z,60.05
2019-03-23T05:29:28.476Z,60.18
2019-03-23T05:31:59.092Z,60.87
2019-03-23T05:34:31.170Z,60.38
2019-03-23T05:37:02.217Z,60.21
2019-03-23T05:39:32.731Z,60.12
2019-03-23T05:42:03.258Z,60.44
2019-03-23T05:44:33.891Z,60.51
2019-03-23T05:47:05.850Z,61.37
2019-03-23T05:49:36.588Z,61.26
2019-03-23T05:52:07.107Z,61.42
2019-03-23T05:54:37.740Z,61.37
2019-03-23T05:57:08.155Z,60.91
2019-03-23T05:59:40.949Z,60.66
2019-03-23T06:02:11.131Z,61.05
2019-03-23T06:04:43.198Z,60.30
2019-03-23T06:07:13.863Z,60.45
2019-03-23T06:09:46.521Z,60.23
2019-03-23T06:12:17.768Z,59.38
2019-03-23T06:14:48.406Z,58.49
2019-03-23T06:17:19.965Z,58.95
2019-03-23T06:19:50.730Z,58.50
2019-03-23T06:22:22.761Z,58.29
2019-03-23T06:24:53.189Z,56.67
2019-03-23T06:27:24.240Z,55.61
2019-03-23T06:29:55.044Z,56.49
2019-03-23T06:32:25.791Z,56.49
2019-03-23T06:34:58.375Z,55.70
2019-03-23T06:37:29.605Z,55.31
2019-03-23T06:39:59.937Z,54.45
2019-03-23T06:42:30.569Z,54.27
2019-03-23T06:45:01.315Z,54.28
2019-03-23T06:47:31.832Z,55.34
2019-03-23T06:50:02.566Z,54.85
2019-03-23T06:52:33.650Z,55.07
2019-03-23T06:55:05.786Z,54.36
2019-03-23T06:57:36.716Z,54.24
2019-03-23T07:00:15.377Z,54.83
2019-03-23T07:02:45.644Z,54.29
2019-03-23T07:05:16.139Z,53.50
2019-03-23T07:07:46.817Z,52.79
2019-03-23T07:10:17.333Z,54.05
2019-03-23T07:12:48.060Z,54.46
2019-03-23T07:15:20.365Z,52.95
2019-03-23T07:17:51.062Z,53.53
2019-03-23T07:20:22.074Z,54.09
2019-03-23T07:22:54.989Z,51.98
2019-03-23T07:25:25.409Z,51.43
2019-03-23T07:27:59.103Z,50.25
2019-03-23T07:30:29.335Z,51.24
2019-03-23T07:32:59.865Z,51.84
2019-03-23T07:35:30.489Z,52.33
2019-03-23T07:38:03.065Z,52.39
2019-03-23T07:40:33.794Z,51.18
2019-03-23T07:43:04.861Z,50.10
2019-03-23T07:45:36.901Z,50.29
2019-03-23T07:48:07.534Z,50.25
2019-03-23T07:50:38.570Z,50.05
2019-03-23T07:53:09.526Z,49.70
2019-03-23T07:55:40.037Z,50.23
2019-03-23T07:58:10.549Z,49.72
2019-03-23T08:00:41.201Z,50.71
2019-03-23T08:03:11.534Z,51.65
2019-03-23T08:05:44.893Z,53.13
2019-03-23T08:08:15.849Z,54.04
2019-03-23T08:10:47.302Z,53.87
2019-03-23T08:13:18.035Z,54.47
2019-03-23T08:15:48.559Z,56.36
2019-03-23T08:18:19.497Z,56.29
2019-03-23T08:20:49.924Z,58.07
2019-03-23T08:23:20.442Z,57.09
2019-03-23T08:25:51.900Z,55.95
2019-03-23T08:28:22.562Z,54.45
2019-03-23T08:30:54.903Z,53.85
2019-03-23T08:33:26.294Z,56.15
2019-03-23T08:35:56.630Z,58.10
2019-03-23T08:38:27.352Z,58.48
2019-03-23T08:40:58.749Z,58.07
2019-03-23T08:43:28.916Z,57.96
2019-03-23T08:46:00.318Z,59.33
2019-03-23T08:48:31.971Z,61.70
2019-03-23T08:51:02.119Z,67.38
2019-03-23T08:53:32.715Z,68.32
2019-03-23T08:56:04.066Z,68.03
2019-03-23T08:58:33.468Z,68.34
2019-03-23T09:01:04.204Z,67.44
2019-03-23T09:03:35.517Z,66.92
2019-03-23T09:06:06.179Z,66.97
2019-03-23T09:08:36.805Z,63.30
2019-03-23T09:11:07.550Z,62.60
2019-03-23T09:13:40.863Z,61.25
2019-03-23T09:16:10.751Z,63.07
2019-03-23T09:18:40.925Z,66.20
2019-03-23T09:21:13.651Z,67.66
2019-03-23T09:23:43.876Z,63.95
2019-03-23T09:26:14.496Z,64.61
2019-03-23T09:28:45.635Z,64.78
2019-03-23T09:31:16.213Z,62.43
2019-03-23T09:33:46.695Z,60.83
2019-03-23T09:36:23.015Z,60.06
2019-03-23T09:38:51.252Z,60.52
2019-03-23T09:41:21.656Z,57.74
2019-03-23T09:43:53.529Z,56.09
2019-03-23T09:46:24.081Z,59.30
2019-03-23T09:48:54.789Z,60.07
2019-03-23T09:51:25.283Z,60.42
2019-03-23T09:53:56.259Z,58.76
2019-03-23T09:56:26.374Z,57.53
2019-03-23T09:58:57.267Z,58.18
2019-03-23T10:01:27.926Z,60.29
2019-03-23T10:04:01.620Z,62.55
2019-03-23T10:06:32.027Z,61.74
2019-03-23T10:09:02.784Z,62.44
2019-03-23T10:11:33.622Z,61.57
2019-03-23T10:14:04.349Z,61.51
2019-03-23T10:16:34.980Z,58.69
2019-03-23T10:19:05.411Z,61.24
2019-03-23T10:21:36.035Z,61.30
2019-03-23T10:24:06.557Z,61.79
2019-03-23T10:26:37.306Z,60.48
2019-03-23T10:29:07.924Z,58.79
2019-03-23T10:31:38.772Z,57.45
2019-03-23T10:34:09.310Z,58.21
2019-03-23T10:36:42.361Z,58.40
2019-03-23T10:39:13.009Z,58.12
2019-03-23T10:41:43.534Z,56.72
2019-03-23T10:44:14.133Z,56.98
2019-03-23T10:46:45.099Z,58.42
2019-03-23T10:49:15.439Z,59.47
2019-03-23T10:51:45.953Z,59.30
2019-03-23T10:54:17.100Z,59.58
2019-03-23T10:56:47.623Z,60.82
2019-03-23T10:59:18.964Z,61.03
2019-03-23T11:01:49.294Z,62.59
2019-03-23T11:04:20.252Z,62.53
2019-03-23T11:06:50.760Z,62.86
2019-03-23T11:09:21.272Z,63.49
2019-03-23T11:11:51.962Z,63.84
2019-03-23T11:14:22.440Z,63.64
2019-03-23T11:16:53.071Z,62.67
2019-03-23T11:19:23.703Z,61.05
2019-03-23T11:21:55.151Z,61.18
2019-03-23T11:24:26.738Z,60.81
2019-03-23T11:26:58.026Z,59.75
2019-03-23T11:29:28.579Z,57.96
2019-03-23T11:32:00.652Z,57.08
2019-03-23T11:34:31.829Z,56.47
2019-03-23T11:37:02.820Z,55.71
2019-03-23T11:39:33.348Z,55.43
2019-03-23T11:42:05.411Z,56.14
2019-03-23T11:44:37.174Z,57.27
2019-03-23T11:47:07.492Z,57.46
2019-03-23T11:49:39.503Z,56.23
2019-03-23T11:52:10.594Z,54.91
2019-03-23T11:54:41.679Z,55.31
2019-03-23T11:57:12.275Z,54.62
2019-03-23T11:59:42.949Z,53.57
2019-03-23T12:02:15.780Z,53.91
2019-03-23T12:04:48.065Z,54.62
2019-03-23T12:07:18.151Z,55.21
2019-03-23T12:09:48.713Z,55.67
2019-03-23T12:12:22.904Z,56.48
2019-03-23T12:14:53.772Z,56.28
2019-03-23T12:17:24.272Z,55.69
2019-03-23T12:19:54.797Z,55.80
2019-03-23T12:22:25.207Z,55.25
2019-03-23T12:24:55.596Z,54.97
2019-03-23T12:27:26.101Z,55.11
2019-03-23T12:30:06.597Z,54.96
2019-03-23T12:32:29.094Z,55.33
2019-03-23T12:35:00.162Z,55.53
2019-03-23T12:37:30.747Z,56.21
2019-03-23T12:40:01.277Z,56.46
2019-03-23T12:42:31.796Z,56.39
2019-03-23T12:45:02.537Z,55.62
2019-03-23T12:47:33.068Z,55.61
2019-03-23T12:50:04.505Z,55.12
2019-03-23T12:52:34.599Z,54.83
2019-03-23T12:55:06.590Z,55.66
2019-03-23T12:57:36.634Z,55.42
2019-03-23T13:00:13.151Z,55.50
2019-03-23T13:02:43.333Z,55.41
2019-03-23T13:05:13.916Z,54.40
2019-03-23T13:07:44.549Z,54.65
2019-03-23T13:10:15.992Z,53.81
2019-03-23T13:12:46.223Z,53.38
2019-03-23T13:15:17.051Z,53.96
2019-03-23T13:17:47.442Z,54.26
2019-03-23T13:20:19.058Z,54.87
2019-03-23T13:22:49.761Z,55.06
2019-03-23T13:25:20.310Z,55.24
2019-03-23T13:27:51.544Z,55.54
2019-03-23T13:30:22.578Z,55.65
2019-03-23T13:32:52.683Z,55.04
2019-03-23T13:35:23.221Z,55.10
2019-03-23T13:37:54.635Z,55.26
2019-03-23T13:40:27.040Z,55.45
2019-03-23T13:42:57.467Z,55.43
2019-03-23T13:45:29.021Z,55.24
2019-03-23T13:47:59.650Z,55.30
2019-03-23T13:50:30.482Z,55.76
2019-03-23T13:53:00.807Z,55.73
2019-03-23T13:55:35.107Z,56.06
2019-03-23T13:58:13.844Z,56.21
2019-03-23T14:00:44.172Z,56.63
2019-03-23T14:03:15.510Z,57.17
2019-03-23T14:05:45.937Z,57.59
2019-03-23T14:08:18.718Z,58.11
2019-03-23T14:10:50.465Z,58.65
2019-03-23T14:13:20.848Z,59.11
2019-03-23T14:15:51.463Z,59.32
2019-03-23T14:18:22.795Z,59.59
2019-03-23T14:20:53.096Z,59.66
2019-03-23T14:23:23.729Z,59.53
2019-03-23T14:25:54.254Z,59.31
2019-03-23T14:28:26.837Z,59.12
2019-03-23T14:30:57.873Z,59.26
2019-03-23T14:33:28.498Z,59.28
2019-03-23T14:36:00.809Z,59.79
2019-03-23T14:38:31.259Z,59.86
2019-03-23T14:41:02.743Z,59.94
2019-03-23T14:43:32.964Z,59.97
2019-03-23T14:46:03.485Z,60.03
2019-03-23T14:48:34.426Z,60.07
2019-03-23T14:51:06.786Z,59.60
2019-03-23T14:53:38.657Z,59.83
2019-03-23T14:56:09.296Z,60.05
2019-03-23T14:58:39.815Z,60.16
2019-03-23T15:01:11.365Z,60.43
2019-03-23T15:03:42.204Z,60.49
2019-03-23T15:06:12.833Z,60.96
2019-03-23T15:08:43.464Z,60.88
2019-03-23T15:11:14.811Z,60.96
2019-03-23T15:13:47.478Z,60.76
2019-03-23T15:16:17.298Z,61.17
2019-03-23T15:18:48.747Z,61.30
2019-03-23T15:21:19.071Z,61.47
2019-03-23T15:23:49.700Z,61.37
2019-03-23T15:26:20.332Z,61.66
2019-03-23T15:28:50.964Z,61.79
2019-03-23T15:31:22.020Z,62.25
2019-03-23T15:33:52.539Z,62.35
2019-03-23T15:36:22.950Z,62.52
2019-03-23T15:38:53.689Z,62.83
2019-03-23T15:41:24.863Z,63.02
2019-03-23T15:43:56.380Z,62.97
2019-03-23T15:46:26.602Z,63.16
2019-03-23T15:48:58.811Z,63.57
2019-03-23T15:51:30.130Z,63.93
2019-03-23T15:54:00.443Z,63.84
2019-03-23T15:56:31.185Z,63.95
2019-03-23T15:59:01.763Z,64.08
2019-03-23T16:01:32.426Z,64.20
2019-03-23T16:04:03.064Z,64.23
2019-03-23T16:06:34.014Z,64.38
2019-03-23T16:09:05.135Z,64.21
2019-03-23T16:11:35.772Z,64.48
2019-03-23T16:14:06.399Z,65.45
2019-03-23T16:16:38.183Z,66.66
2019-03-23T16:19:08.473Z,67.53
2019-03-23T16:21:39.106Z,67.75
2019-03-23T16:24:09.741Z,68.04
2019-03-23T16:26:39.959Z,68.13
2019-03-23T16:29:12.311Z,68.73
2019-03-23T16:31:45.212Z,68.70
2019-03-23T16:34:15.738Z,68.96
2019-03-23T16:36:46.370Z,68.69
2019-03-23T16:39:17.102Z,68.64
2019-03-23T16:41:48.916Z,68.40
2019-03-23T16:44:19.491Z,68.25
2019-03-23T16:46:50.118Z,68.06
2019-03-23T16:49:20.597Z,68.12
2019-03-23T16:51:52.808Z,67.60
2019-03-23T16:54:23.441Z,67.60
2019-03-23T16:56:53.869Z,67.37
2019-03-23T16:59:25.215Z,67.68
2019-03-23T17:01:55.691Z,66.66
2019-03-23T17:04:26.383Z,66.57
2019-03-23T17:06:56.898Z,66.46
2019-03-23T17:09:27.538Z,65.93
2019-03-23T17:11:58.260Z,65.94
2019-03-23T17:14:28.994Z,65.99
2019-03-23T17:17:00.376Z,65.97
2019-03-23T17:19:30.999Z,66.16
2019-03-23T17:22:01.805Z,66.29
2019-03-23T17:24:32.986Z,66.22
2019-03-23T17:27:04.397Z,66.46
2019-03-23T17:29:34.925Z,66.36
2019-03-23T17:32:05.456Z,66.48
2019-03-23T17:34:36.121Z,66.40
2019-03-23T17:37:06.712Z,66.57
2019-03-23T17:39:37.240Z,66.74
2019-03-23T17:42:08.177Z,66.23
2019-03-23T17:44:40.238Z,66.15
2019-03-23T17:47:13.348Z,66.07
2019-03-23T17:49:44.163Z,66.04
2019-03-23T17:52:15.048Z,65.67
2019-03-23T17:54:46.598Z,65.27
2019-03-23T17:57:16.875Z,65.00
2019-03-23T17:59:47.917Z,65.04
2019-03-23T18:02:18.540Z,65.05
2019-03-23T18:04:48.970Z,65.36
2019-03-23T18:07:20.005Z,65.26
2019-03-23T18:09:51.458Z,65.09
2019-03-23T18:12:22.088Z,65.20
2019-03-23T18:14:52.409Z,65.20
2019-03-23T18:17:23.148Z,65.50
2019-03-23T18:19:53.873Z,65.53
2019-03-23T18:22:24.297Z,65.31
2019-03-23T18:24:55.647Z,65.19
2019-03-23T18:27:26.479Z,65.22
2019-03-23T18:29:57.732Z,65.48
2019-03-23T18:32:27.843Z,65.25
2019-03-23T18:34:59.906Z,65.46
2019-03-23T18:37:30.739Z,65.69
2019-03-23T18:40:02.703Z,65.74
2019-03-23T18:42:33.336Z,65.44
2019-03-23T18:45:07.141Z,65.44
2019-03-23T18:47:38.077Z,65.42
2019-03-23T18:50:08.500Z,65.59
2019-03-23T18:52:39.036Z,65.55
2019-03-23T18:55:10.269Z,65.58
2019-03-23T18:57:43.254Z,65.67
2019-03-23T19:00:22.745Z,65.71
2019-03-23T19:02:54.143Z,65.66
2019-03-23T19:05:24.773Z,66.15
2019-03-23T19:07:56.121Z,65.98
2019-03-23T19:10:26.925Z,66.28
2019-03-23T19:12:57.504Z,66.46
2019-03-23T19:15:28.315Z,66.19
2019-03-23T19:17:58.615Z,66.44
2019-03-23T19:20:29.678Z,66.50
2019-03-23T19:23:00.620Z,66.47
2019-03-23T19:25:31.168Z,66.83
2019-03-23T19:28:01.677Z,66.66
2019-03-23T19:30:32.813Z,66.77
2019-03-23T19:33:06.209Z,66.81
2019-03-23T19:35:37.559Z,67.01
2019-03-23T19:38:08.187Z,67.09
2019-03-23T19:40:38.714Z,66.97
2019-03-23T19:43:09.549Z,67.32
2019-03-23T19:45:40.691Z,67.31
2019-03-23T19:48:11.323Z,67.37
2019-03-23T19:50:42.573Z,67.54
2019-03-23T19:53:13.198Z,67.53
2019-03-23T19:55:44.750Z,67.67
2019-03-23T19:58:15.273Z,67.66
2019-03-23T20:00:47.943Z,67.69
2019-03-23T20:03:19.399Z,67.71
2019-03-23T20:05:50.676Z,67.61
2019-03-23T20:08:21.697Z,67.62
2019-03-23T20:10:52.009Z,67.86
2019-03-23T20:13:22.531Z,67.45
2019-03-23T20:15:53.024Z,67.68
2019-03-23T20:18:23.583Z,67.59
2019-03-23T20:20:55.145Z,67.22
2019-03-23T20:23:26.390Z,67.48
2019-03-23T20:25:59.172Z,67.53
2019-03-23T20:28:30.413Z,67.21
2019-03-23T20:31:03.017Z,67.34
2019-03-23T20:33:33.518Z,67.35
2019-03-23T20:36:05.068Z,67.14
2019-03-23T20:38:36.473Z,67.25
2019-03-23T20:41:06.940Z,67.63
2019-03-23T20:43:38.400Z,67.65
2019-03-23T20:46:08.582Z,67.85
2019-03-23T20:48:39.347Z,67.96
2019-03-23T20:51:09.975Z,67.87
2019-03-23T20:53:40.705Z,68.03
2019-03-23T20:56:11.476Z,68.16
2019-03-23T20:58:42.172Z,67.93
2019-03-23T21:01:12.800Z,68.12
2019-03-23T21:03:43.433Z,68.24
2019-03-23T21:06:14.161Z,68.38
2019-03-23T21:08:44.796Z,68.27
2019-03-23T21:11:15.194Z,68.41
2019-03-23T21:13:46.259Z,68.31
2019-03-23T21:16:18.246Z,68.18
2019-03-23T21:18:50.587Z,68.14
2019-03-23T21:21:21.796Z,68.14
2019-03-23T21:23:52.468Z,67.70
2019-03-23T21:26:22.988Z,68.04
2019-03-23T21:28:53.514Z,68.15
2019-03-23T21:31:25.069Z,68.05
2019-03-23T21:33:55.737Z,68.10
2019-03-23T21:36:26.438Z,68.13
2019-03-23T21:38:56.919Z,68.43
2019-03-23T21:41:28.313Z,68.20
2019-03-23T21:43:59.042Z,67.97
2019-03-23T21:46:29.579Z,67.91
2019-03-23T21:49:00.120Z,67.86
2019-03-23T21:51:31.886Z,67.91
2019-03-23T21:54:02.178Z,67.66
2019-03-23T21:56:32.571Z,67.65
2019-03-23T21:59:03.233Z,67.59
2019-03-23T22:01:34.050Z,67.55
2019-03-23T22:04:04.697Z,67.89
2019-03-23T22:06:35.731Z,67.39
2019-03-23T22:09:06.878Z,67.85
2019-03-23T22:11:37.094Z,68.24
2019-03-23T22:14:07.616Z,68.64
2019-03-23T22:16:38.677Z,68.75
2019-03-23T22:19:09.197Z,68.90
2019-03-23T22:21:41.152Z,69.05
2019-03-23T22:24:11.785Z,69.60
2019-03-23T22:26:43.279Z,70.03
2019-03-23T22:29:13.973Z,69.86
2019-03-23T22:31:44.901Z,70.52
2019-03-23T22:34:15.431Z,70.83
2019-03-23T22:36:46.470Z,71.03
2019-03-23T22:39:17.100Z,71.15
2019-03-23T22:41:47.733Z,70.87
2019-03-23T22:44:18.772Z,70.95
2019-03-23T22:46:49.296Z,71.42
2019-03-23T22:49:20.644Z,71.22
2019-03-23T22:51:53.535Z,71.21
2019-03-23T22:54:25.586Z,71.55
2019-03-23T22:56:56.324Z,71.46
2019-03-23T22:59:27.670Z,71.50
2019-03-23T23:01:58.708Z,71.78
2019-03-23T23:04:30.802Z,72.03
2019-03-23T23:07:01.412Z,72.34
2019-03-23T23:09:32.093Z,72.65
2019-03-23T23:12:03.258Z,72.85
2019-03-23T23:14:34.815Z,73.21
2019-03-23T23:17:05.456Z,73.53
2019-03-23T23:19:37.009Z,73.79
2019-03-23T23:22:07.343Z,74.10
2019-03-23T23:24:37.982Z,74.20
2019-03-23T23:27:08.677Z,74.30
2019-03-23T23:29:40.250Z,74.54
2019-03-23T23:32:11.286Z,74.83
2019-03-23T23:34:41.693Z,75.05
2019-03-23T23:37:12.197Z,75.18
2019-03-23T23:39:43.794Z,75.44
2019-03-23T23:42:14.420Z,75.51
2019-03-23T23:44:46.239Z,74.89
2019-03-23T23:47:16.499Z,75.07
2019-03-23T23:49:47.647Z,75.24
2019-03-23T23:52:18.270Z,75.31
2019-03-23T23:54:49.004Z,75.57
2019-03-23T23:57:20.487Z,75.20
2019-03-23T23:59:51.141Z,75.27
